createdAt,value
2019-04-07T00:00:13.426Z,26.87
2019-04-07T00:02:42.478Z,23.80
2019-04-07T00:05:14.426Z,29.03
2019-04-07T00:07:42.441Z,25.97
2019-04-07T00:10:12.056Z,27.83
2019-04-07T00:12:41.557Z,32.17
2019-04-07T00:15:10.572Z,20.37
2019-04-07T00:17:39.581Z,25.90
2019-04-07T00:20:08.882Z,24.27
2019-04-07T00:22:38.021Z,26.80
2019-04-07T00:25:07.172Z,29.13
2019-04-07T00:27:36.860Z,25.37
2019-04-07T00:30:06.569Z,21.50
2019-04-07T00:32:35.595Z,31.13
2019-04-07T00:35:05.485Z,26.37
2019-04-07T00:37:34.668Z,30.07
2019-04-07T00:40:04.218Z,25.77
2019-04-07T00:42:33.742Z,23.37
2019-04-07T00:45:03.599Z,27.50
2019-04-07T00:47:32.525Z,24.57
2019-04-07T00:50:01.546Z,26.83
2019-04-07T00:52:30.726Z,23.87
2019-04-07T00:54:59.984Z,25.40
2019-04-07T00:57:29.618Z,23.37
2019-04-07T00:59:59.464Z,26.10
2019-04-07T01:02:28.587Z,26.37
2019-04-07T01:04:57.591Z,32.23
2019-04-07T01:07:26.652Z,27.00
2019-04-07T01:09:56.046Z,23.47
2019-04-07T01:12:24.984Z,31.00
2019-04-07T01:14:54.440Z,39.70
2019-04-07T01:17:23.699Z,27.40
2019-04-07T01:19:52.938Z,30.17
2019-04-07T01:22:22.525Z,28.20
2019-04-07T01:24:51.785Z,28.17
2019-04-07T01:27:21.474Z,32.10
2019-04-07T01:29:50.782Z,32.60
2019-04-07T01:32:20.295Z,31.53
2019-04-07T01:34:49.400Z,34.40
2019-04-07T01:37:18.705Z,32.53
2019-04-07T01:39:47.803Z,29.63
2019-04-07T01:42:38.981Z,32.77
2019-04-07T01:45:25.976Z,31.30
2019-04-07T01:48:02.373Z,36.27
2019-04-07T01:50:58.167Z,31.73
2019-04-07T01:53:49.965Z,34.20
2019-04-07T01:56:37.201Z,29.87
2019-04-07T01:59:12.960Z,34.53
2019-04-07T02:02:01.329Z,27.07
2019-04-07T02:04:40.003Z,32.70
2019-04-07T02:07:27.274Z,24.43
2019-04-07T02:10:14.988Z,30.90
2019-04-07T02:12:59.341Z,25.40
2019-04-07T02:15:53.761Z,31.70
2019-04-07T02:18:39.989Z,32.77
2019-04-07T02:21:31.841Z,34.80
2019-04-07T02:24:23.473Z,34.17
2019-04-07T02:27:01.841Z,30.70
2019-04-07T02:29:48.835Z,33.87
2019-04-07T02:32:35.862Z,33.07
2019-04-07T02:35:25.803Z,33.13
2019-04-07T02:38:15.083Z,26.43
2019-04-07T02:40:51.763Z,33.17
2019-04-07T02:43:41.155Z,29.93
2019-04-07T02:46:36.566Z,30.30
2019-04-07T02:49:32.250Z,30.00
2019-04-07T02:52:26.831Z,27.83
2019-04-07T02:55:11.629Z,26.13
2019-04-07T02:58:10.267Z,26.63
2019-04-07T03:00:52.705Z,28.57
2019-04-07T03:03:27.205Z,27.80
2019-04-07T03:06:37.699Z,24.97
2019-04-07T03:09:10.902Z,28.40
2019-04-07T03:12:08.140Z,29.33
2019-04-07T03:14:55.713Z,26.13
2019-04-07T03:17:32.574Z,25.07
2019-04-07T03:20:13.627Z,23.77
2019-04-07T03:23:00.465Z,35.10
2019-04-07T03:25:48.648Z,28.60
2019-04-07T03:28:33.081Z,26.33
2019-04-07T03:31:12.794Z,23.43
2019-04-07T03:34:05.967Z,25.37
2019-04-07T03:37:12.691Z,26.17
2019-04-07T03:39:24.516Z,24.17
2019-04-07T03:42:01.582Z,24.20
2019-04-07T03:44:41.012Z,22.43
2019-04-07T03:47:44.586Z,28.17
2019-04-07T03:50:25.626Z,29.80
2019-04-07T03:53:13.627Z,21.97
2019-04-07T03:55:51.562Z,26.77
2019-04-07T03:58:52.398Z,31.50
2019-04-07T04:01:41.476Z,22.70
2019-04-07T04:04:20.999Z,22.70
2019-04-07T04:07:25.809Z,20.17
2019-04-07T04:10:17.519Z,24.93
2019-04-07T04:13:05.554Z,25.00
2019-04-07T04:15:51.577Z,22.73
2019-04-07T04:18:20.751Z,24.07
2019-04-07T04:20:49.811Z,26.53
2019-04-07T04:23:19.754Z,23.47
2019-04-07T04:25:52.599Z,18.90
2019-04-07T04:28:21.903Z,26.80
2019-04-07T04:30:51.129Z,22.20
2019-04-07T04:33:20.266Z,25.07
2019-04-07T04:35:49.264Z,21.90
2019-04-07T04:38:18.186Z,22.80
2019-04-07T04:40:47.213Z,27.77
2019-04-07T04:43:16.230Z,21.93
2019-04-07T04:45:46.041Z,29.10
2019-04-07T04:48:15.525Z,21.43
2019-04-07T04:50:44.640Z,19.73
2019-04-07T04:53:13.580Z,21.67
2019-04-07T04:55:42.485Z,20.50
2019-04-07T04:58:11.588Z,29.03
2019-04-07T05:00:41.469Z,22.13
2019-04-07T05:03:10.973Z,24.77
2019-04-07T05:05:40.022Z,21.80
2019-04-07T05:08:09.420Z,24.60
2019-04-07T05:10:38.473Z,28.43
2019-04-07T05:13:07.651Z,28.93
2019-04-07T05:15:36.678Z,26.30
2019-04-07T05:18:06.421Z,29.00
2019-04-07T05:20:35.508Z,23.13
2019-04-07T05:23:05.188Z,22.40
2019-04-07T05:25:34.913Z,28.30
2019-04-07T05:28:04.634Z,29.13
2019-04-07T05:30:33.766Z,26.13
2019-04-07T05:33:03.483Z,30.70
2019-04-07T05:35:32.969Z,32.43
2019-04-07T05:38:04.955Z,32.17
2019-04-07T05:40:32.825Z,28.37
2019-04-07T05:43:02.063Z,32.07
2019-04-07T05:45:31.542Z,37.00
2019-04-07T05:48:00.621Z,32.00
2019-04-07T05:50:29.690Z,34.47
2019-04-07T05:52:58.808Z,36.47
2019-04-07T05:55:28.109Z,34.03
2019-04-07T05:57:57.565Z,33.10
2019-04-07T06:00:26.684Z,31.40
2019-04-07T06:02:56.041Z,34.73
2019-04-07T06:05:25.483Z,33.10
2019-04-07T06:07:54.550Z,29.53
2019-04-07T06:10:26.587Z,37.27
2019-04-07T06:12:54.161Z,33.37
2019-04-07T06:15:23.313Z,41.33
2019-04-07T06:17:52.412Z,36.90
2019-04-07T06:20:22.496Z,46.27
2019-04-07T06:22:53.632Z,39.87
2019-04-07T06:25:22.342Z,37.30
2019-04-07T06:27:51.893Z,40.87
2019-04-07T06:30:22.100Z,37.87
2019-04-07T06:32:51.571Z,36.83
2019-04-07T06:35:20.887Z,39.87
2019-04-07T06:37:50.780Z,33.40
2019-04-07T06:40:21.313Z,34.03
2019-04-07T06:42:51.264Z,34.63
2019-04-07T06:45:24.420Z,32.47
2019-04-07T06:47:56.297Z,31.87
2019-04-07T06:50:49.492Z,30.43
2019-04-07T06:53:21.204Z,32.97
2019-04-07T06:56:08.942Z,31.97
2019-04-07T06:58:50.468Z,30.90
2019-04-07T07:01:30.772Z,27.40
2019-04-07T07:04:34.478Z,31.47
2019-04-07T07:07:13.034Z,33.13
2019-04-07T07:10:00.970Z,24.10
2019-04-07T07:12:52.228Z,23.60
2019-04-07T07:15:49.559Z,28.93
2019-04-07T07:18:42.544Z,23.43
2019-04-07T07:21:36.217Z,24.37
2019-04-07T07:24:04.972Z,25.93
2019-04-07T07:26:35.455Z,25.20
2019-04-07T07:29:06.708Z,27.80
2019-04-07T07:31:35.810Z,23.80
2019-04-07T07:34:05.047Z,25.37
2019-04-07T07:36:34.966Z,24.53
2019-04-07T07:39:10.249Z,27.33
2019-04-07T07:41:37.731Z,27.60
2019-04-07T07:44:08.624Z,23.33
2019-04-07T07:46:38.577Z,31.90
2019-04-07T07:49:07.636Z,23.83
2019-04-07T07:51:38.666Z,23.50
2019-04-07T07:54:07.730Z,22.40
2019-04-07T07:56:36.718Z,31.37
2019-04-07T07:59:06.240Z,26.10
2019-04-07T08:01:35.318Z,27.03
2019-04-07T08:04:05.142Z,28.43
2019-04-07T08:06:34.662Z,26.00
2019-04-07T08:09:12.855Z,24.00
2019-04-07T08:11:37.962Z,33.03
2019-04-07T08:14:07.606Z,28.23
2019-04-07T08:16:37.390Z,28.87
2019-04-07T08:19:09.388Z,30.67
2019-04-07T08:21:38.036Z,29.10
2019-04-07T08:24:07.984Z,29.53
2019-04-07T08:26:37.234Z,30.97
2019-04-07T08:29:07.759Z,33.80
2019-04-07T08:31:37.303Z,36.40
2019-04-07T08:34:06.297Z,29.83
2019-04-07T08:36:35.296Z,27.63
2019-04-07T08:39:18.525Z,28.90
2019-04-07T08:41:39.686Z,26.17
2019-04-07T08:44:08.250Z,25.00
2019-04-07T08:46:40.960Z,24.73
2019-04-07T08:49:08.672Z,26.80
2019-04-07T08:51:37.658Z,25.67
2019-04-07T08:54:07.314Z,21.87
2019-04-07T08:56:36.663Z,26.60
2019-04-07T08:59:08.482Z,20.83
2019-04-07T09:01:38.728Z,21.57
2019-04-07T09:04:07.759Z,24.77
2019-04-07T09:06:37.431Z,18.33
2019-04-07T09:09:08.048Z,20.73
2019-04-07T09:11:40.006Z,16.77
2019-04-07T09:14:08.708Z,18.80
2019-04-07T09:16:58.123Z,18.60
2019-04-07T09:19:40.439Z,17.87
2019-04-07T09:22:26.575Z,15.70
2019-04-07T09:25:19.346Z,20.73
2019-04-07T09:28:17.908Z,21.03
2019-04-07T09:31:03.137Z,15.90
2019-04-07T09:34:05.557Z,18.27
2019-04-07T09:36:50.366Z,21.50
2019-04-07T09:39:26.938Z,21.33
2019-04-07T09:42:04.734Z,15.00
2019-04-07T09:44:53.775Z,17.10
2019-04-07T09:47:41.378Z,18.70
2019-04-07T09:50:29.616Z,20.67
2019-04-07T09:53:30.515Z,24.13
2019-04-07T09:56:20.323Z,18.70
2019-04-07T09:59:19.273Z,21.60
2019-04-07T10:02:14.552Z,23.87
2019-04-07T10:05:00.151Z,17.93
2019-04-07T10:07:48.845Z,17.17
2019-04-07T10:10:35.015Z,22.00
2019-04-07T10:13:17.864Z,18.97
2019-04-07T10:16:12.015Z,21.63
2019-04-07T10:18:55.087Z,22.73
2019-04-07T10:21:44.038Z,25.77
2019-04-07T10:24:32.577Z,24.67
2019-04-07T10:27:24.318Z,23.13
2019-04-07T10:30:11.423Z,21.80
2019-04-07T10:32:53.237Z,23.40
2019-04-07T10:35:39.949Z,22.30
2019-04-07T10:38:23.600Z,19.90
2019-04-07T10:41:12.922Z,20.27
2019-04-07T10:44:05.181Z,24.83
2019-04-07T10:47:02.306Z,21.93
2019-04-07T10:49:44.287Z,21.93
2019-04-07T10:52:26.072Z,21.80
2019-04-07T10:55:20.731Z,24.90
2019-04-07T10:58:15.267Z,20.50
2019-04-07T11:01:02.906Z,20.40
2019-04-07T11:03:46.844Z,20.37
2019-04-07T11:06:22.748Z,23.57
2019-04-07T11:09:11.131Z,21.07
2019-04-07T11:11:48.915Z,19.03
2019-04-07T11:14:36.585Z,20.90
2019-04-07T11:17:14.789Z,22.90
2019-04-07T11:19:50.390Z,18.10
2019-04-07T11:22:37.129Z,24.40
2019-04-07T11:25:27.254Z,20.10
2019-04-07T11:28:19.661Z,25.30
2019-04-07T11:31:06.398Z,29.33
2019-04-07T11:33:54.556Z,18.00
2019-04-07T11:36:28.874Z,20.77
2019-04-07T11:39:08.977Z,16.70
2019-04-07T11:41:57.275Z,20.17
2019-04-07T11:44:43.375Z,17.60
2019-04-07T11:47:24.141Z,22.17
2019-04-07T11:50:21.250Z,17.77
2019-04-07T11:53:09.373Z,16.40
2019-04-07T11:55:48.593Z,17.83
2019-04-07T11:58:36.057Z,18.00
2019-04-07T12:01:24.280Z,19.97
2019-04-07T12:04:06.821Z,18.50
2019-04-07T12:06:49.352Z,19.50
2019-04-07T12:09:23.920Z,22.37
2019-04-07T12:12:06.920Z,19.03
2019-04-07T12:14:57.821Z,17.00
2019-04-07T12:17:52.422Z,17.60
2019-04-07T12:20:36.276Z,19.83
2019-04-07T12:23:30.697Z,15.03
2019-04-07T12:26:18.915Z,17.63
2019-04-07T12:29:06.903Z,15.47
2019-04-07T12:31:59.721Z,19.80
2019-04-07T12:34:49.594Z,17.93
2019-04-07T12:37:40.921Z,16.73
2019-04-07T12:40:34.290Z,17.77
2019-04-07T12:43:23.030Z,18.10
2019-04-07T12:46:02.455Z,18.80
2019-04-07T12:48:49.968Z,16.00
2019-04-07T12:51:30.803Z,19.50
2019-04-07T12:54:12.766Z,19.43
2019-04-07T12:57:06.174Z,17.03
2019-04-07T12:59:54.889Z,19.13
2019-04-07T13:02:54.398Z,19.70
2019-04-07T13:05:45.176Z,17.60
2019-04-07T13:08:39.300Z,18.10
2019-04-07T13:11:26.520Z,15.37
2019-04-07T13:14:14.045Z,16.83
2019-04-07T13:17:01.705Z,18.10
2019-04-07T13:19:50.531Z,19.17
2019-04-07T13:22:42.155Z,22.47
2019-04-07T13:25:53.273Z,17.83
2019-04-07T13:28:41.876Z,21.43
2019-04-07T13:31:25.729Z,21.63
2019-04-07T13:34:09.411Z,24.77
2019-04-07T13:37:04.496Z,17.77
2019-04-07T13:39:53.391Z,18.57
2019-04-07T13:42:38.902Z,21.67
2019-04-07T13:45:31.220Z,17.57
2019-04-07T13:48:06.475Z,17.10
2019-04-07T13:50:47.507Z,15.13
2019-04-07T13:53:48.225Z,17.57
2019-04-07T13:56:28.633Z,20.07
2019-04-07T13:59:11.185Z,20.20
2019-04-07T14:01:52.461Z,17.90
2019-04-07T14:04:39.207Z,17.00
2019-04-07T14:07:26.359Z,20.30
2019-04-07T14:10:26.473Z,18.50
2019-04-07T14:13:14.815Z,20.23
2019-04-07T14:16:01.940Z,19.03
2019-04-07T14:18:46.827Z,18.37
2019-04-07T14:21:30.721Z,20.10
2019-04-07T14:24:18.768Z,20.47
2019-04-07T14:26:56.731Z,17.80
2019-04-07T14:30:07.840Z,20.43
2019-04-07T14:33:02.398Z,21.30
2019-04-07T14:35:54.301Z,20.43
2019-04-07T14:38:35.558Z,20.30
2019-04-07T14:41:30.157Z,22.03
2019-04-07T14:44:24.733Z,20.57
2019-04-07T14:47:12.004Z,23.13
2019-04-07T14:50:03.765Z,19.93
2019-04-07T14:52:57.932Z,20.97
2019-04-07T14:55:38.098Z,20.27
2019-04-07T14:58:38.332Z,21.03
2019-04-07T15:01:16.500Z,20.13
2019-04-07T15:03:45.849Z,18.47
2019-04-07T15:06:16.534Z,17.80
2019-04-07T15:08:53.338Z,23.53
2019-04-07T15:11:51.017Z,21.10
2019-04-07T15:14:20.227Z,16.10
2019-04-07T15:16:50.222Z,17.13
2019-04-07T15:19:19.948Z,20.97
2019-04-07T15:21:53.115Z,18.93
2019-04-07T15:24:21.956Z,20.27
2019-04-07T15:26:54.057Z,22.87
2019-04-07T15:29:24.214Z,19.90
2019-04-07T15:31:54.375Z,19.70
2019-04-07T15:34:24.160Z,18.80
2019-04-07T15:36:53.235Z,16.10
2019-04-07T15:39:28.057Z,22.07
2019-04-07T15:41:56.623Z,15.63
2019-04-07T15:44:25.981Z,18.40
2019-04-07T15:46:56.577Z,19.37
2019-04-07T15:49:28.150Z,20.60
2019-04-07T15:51:57.263Z,17.10
2019-04-07T15:54:26.230Z,20.90
2019-04-07T15:56:57.903Z,17.87
2019-04-07T15:59:29.437Z,15.67
2019-04-07T16:01:57.333Z,19.80
2019-04-07T16:04:29.308Z,18.43
2019-04-07T16:06:57.257Z,16.07
2019-04-07T16:09:35.944Z,14.83
2019-04-07T16:11:58.932Z,14.13
2019-04-07T16:14:28.737Z,15.03
2019-04-07T16:17:02.068Z,13.53
2019-04-07T16:19:38.855Z,11.60
2019-04-07T16:22:00.107Z,14.87
2019-04-07T16:24:29.287Z,15.43
2019-04-07T16:26:58.943Z,17.73
2019-04-07T16:29:29.545Z,12.33
2019-04-07T16:31:58.788Z,17.20
2019-04-07T16:34:28.371Z,17.10
2019-04-07T16:37:00.184Z,16.13
2019-04-07T16:39:33.492Z,16.23
2019-04-07T16:42:01.087Z,14.67
2019-04-07T16:44:30.819Z,15.90
2019-04-07T16:47:03.879Z,10.67
2019-04-07T16:49:31.512Z,13.20
2019-04-07T16:52:02.296Z,12.23
2019-04-07T16:54:32.478Z,12.93
2019-04-07T16:57:02.035Z,13.60
2019-04-07T16:59:31.684Z,10.17
2019-04-07T17:02:00.718Z,12.33
2019-04-07T17:04:30.053Z,8.33
2019-04-07T17:07:04.109Z,9.47
2019-04-07T17:09:30.201Z,12.73
2019-04-07T17:12:00.270Z,10.40
2019-04-07T17:14:31.938Z,10.80
2019-04-07T17:17:00.324Z,10.23
2019-04-07T17:19:30.102Z,8.33
2019-04-07T17:22:00.469Z,11.03
2019-04-07T17:24:30.550Z,9.53
2019-04-07T17:27:01.021Z,11.13
2019-04-07T17:29:30.834Z,10.10
2019-04-07T17:32:01.769Z,13.83
2019-04-07T17:34:30.969Z,6.77
2019-04-07T17:37:00.825Z,9.07
2019-04-07T17:39:41.937Z,6.17
2019-04-07T17:42:12.919Z,8.80
2019-04-07T17:44:59.882Z,7.77
2019-04-07T17:47:36.658Z,7.30
2019-04-07T17:50:26.026Z,10.33
2019-04-07T17:53:10.033Z,27.97
2019-04-07T17:55:58.873Z,8.17
2019-04-07T17:58:45.732Z,19.13
2019-04-07T18:01:32.549Z,14.20
2019-04-07T18:04:30.627Z,8.73
2019-04-07T18:07:24.307Z,12.90
2019-04-07T18:10:12.308Z,9.10
2019-04-07T18:13:07.407Z,7.70
2019-04-07T18:15:58.340Z,10.67
2019-04-07T18:18:45.744Z,8.10
2019-04-07T18:21:37.598Z,13.87
2019-04-07T18:24:20.627Z,16.30
2019-04-07T18:27:02.216Z,11.63
2019-04-07T18:29:52.779Z,8.93
2019-04-07T18:32:43.120Z,6.27
2019-04-07T18:35:30.832Z,15.93
2019-04-07T18:38:17.327Z,19.13
2019-04-07T18:41:09.408Z,11.80
2019-04-07T18:44:02.491Z,7.77
2019-04-07T18:46:47.778Z,7.73
2019-04-07T18:49:46.523Z,7.83
2019-04-07T18:52:38.943Z,5.13
2019-04-07T18:55:26.490Z,9.23
2019-04-07T18:58:03.074Z,6.93
2019-04-07T19:00:52.621Z,4.80
2019-04-07T19:03:58.984Z,5.47
2019-04-07T19:06:41.157Z,5.93
2019-04-07T19:09:35.745Z,8.23
2019-04-07T19:12:23.150Z,6.47
2019-04-07T19:15:14.103Z,5.10
2019-04-07T19:18:03.502Z,4.57
2019-04-07T19:20:55.674Z,5.97
2019-04-07T19:24:02.589Z,4.90
2019-04-07T19:26:54.428Z,11.37
2019-04-07T19:29:42.704Z,6.37
2019-04-07T19:32:20.892Z,6.97
2019-04-07T19:35:18.624Z,5.60
2019-04-07T19:38:00.899Z,4.73
2019-04-07T19:40:47.121Z,4.13
2019-04-07T19:43:33.188Z,9.70
2019-04-07T19:46:16.179Z,11.53
2019-04-07T19:49:13.928Z,5.23
2019-04-07T19:51:49.599Z,19.30
2019-04-07T19:54:38.375Z,17.20
2019-04-07T19:57:29.937Z,11.77
2019-04-07T20:00:26.014Z,12.40
2019-04-07T20:03:07.668Z,9.10
2019-04-07T20:06:11.410Z,7.17
2019-04-07T20:09:07.626Z,19.90
2019-04-07T20:12:01.518Z,15.73
2019-04-07T20:14:55.567Z,5.83
2019-04-07T20:17:50.374Z,5.03
2019-04-07T20:20:48.526Z,8.67
2019-04-07T20:23:30.953Z,14.73
2019-04-07T20:26:28.410Z,10.17
2019-04-07T20:29:15.266Z,8.57
2019-04-07T20:31:54.905Z,15.77
2019-04-07T20:34:34.002Z,22.60
2019-04-07T20:37:34.349Z,9.37
2019-04-07T20:40:11.171Z,9.97
2019-04-07T20:42:48.426Z,10.50
2019-04-07T20:45:28.898Z,9.40
2019-04-07T20:48:26.847Z,6.60
2019-04-07T20:51:31.297Z,4.47
2019-04-07T20:54:18.350Z,5.47
2019-04-07T20:56:57.563Z,11.50
2019-04-07T20:59:53.046Z,7.10
2019-04-07T21:03:11.219Z,9.13
2019-04-07T21:05:46.702Z,7.80
2019-04-07T21:08:49.900Z,5.70
2019-04-07T21:11:29.981Z,5.63
2019-04-07T21:14:07.258Z,7.93
2019-04-07T21:16:59.426Z,13.40
2019-04-07T21:19:51.281Z,7.20
2019-04-07T21:22:33.477Z,5.10
2019-04-07T21:25:39.878Z,11.60
2019-04-07T21:28:13.462Z,8.13
2019-04-07T21:30:51.532Z,5.10
2019-04-07T21:33:40.829Z,4.50
2019-04-07T21:36:22.052Z,5.00
2019-04-07T21:39:30.458Z,4.27
2019-04-07T21:42:18.631Z,7.17
2019-04-07T21:45:15.381Z,5.40
2019-04-07T21:48:18.617Z,4.97
2019-04-07T21:50:58.173Z,6.70
2019-04-07T21:53:34.661Z,4.40
2019-04-07T21:56:18.169Z,8.80
2019-04-07T21:59:03.217Z,32.80
2019-04-07T22:01:50.929Z,10.30
2019-04-07T22:04:38.180Z,7.57
2019-04-07T22:07:13.274Z,7.73
2019-04-07T22:09:52.495Z,5.47
2019-04-07T22:12:25.698Z,2.87
2019-04-07T22:14:52.767Z,3.10
2019-04-07T22:17:21.940Z,5.93
2019-04-07T22:19:51.195Z,4.63
2019-04-07T22:22:20.306Z,4.17
2019-04-07T22:24:49.420Z,3.03
2019-04-07T22:27:24.111Z,3.40
2019-04-07T22:29:49.937Z,4.33
2019-04-07T22:32:22.072Z,4.43
2019-04-07T22:34:50.343Z,2.80
2019-04-07T22:37:21.142Z,4.03
2019-04-07T22:39:50.230Z,2.57
2019-04-07T22:42:19.311Z,2.50
2019-04-07T22:44:49.901Z,2.47
2019-04-07T22:47:19.706Z,2.10
2019-04-07T22:49:50.622Z,5.27
2019-04-07T22:52:20.535Z,2.43
2019-04-07T22:54:49.878Z,2.90
2019-04-07T22:57:19.698Z,4.00
2019-04-07T22:59:48.752Z,2.70
2019-04-07T23:02:17.947Z,3.90
2019-04-07T23:04:47.033Z,2.47
2019-04-07T23:07:15.981Z,2.37
2019-04-07T23:09:45.450Z,4.13
2019-04-07T23:12:14.760Z,2.90
2019-04-07T23:14:44.274Z,2.47
2019-04-07T23:17:13.311Z,2.93
2019-04-07T23:19:42.258Z,2.17
2019-04-07T23:22:11.770Z,2.63
2019-04-07T23:24:41.116Z,2.07
2019-04-07T23:27:10.434Z,2.30
2019-04-07T23:29:39.480Z,4.80
2019-04-07T23:32:09.290Z,3.13
2019-04-07T23:34:39.402Z,3.20
2019-04-07T23:37:08.539Z,3.73
2019-04-07T23:39:37.717Z,2.77
2019-04-07T23:42:06.988Z,4.13
2019-04-07T23:44:36.167Z,5.40
2019-04-07T23:47:05.268Z,5.73
2019-04-07T23:49:34.303Z,2.50
2019-04-07T23:52:03.297Z,9.10
2019-04-07T23:54:33.104Z,2.80
2019-04-07T23:57:02.398Z,4.20
2019-04-07T23:59:31.491Z,3.27
